Startpagina
METAR-TAF:

METAR-TAF

Vliegvelden :

Luchthaven Dzjengis Khan

Ulaanbaatar, Mongolië

breedte: 47-55N, lengte: 106-52E, hoogte: 1306 m

Actueel weer

Dit bericht is 12 minuten geleden gemaakt, om 19:00 UTC
Wind 2 kt uit variabele richting
Temperatuur -5°C
Vochtigheid 79%
Druk 1023 hPa
Zicht 10 km of meer
geen wolken onder 1500 m en geen cumulonimbus

METAR: ZMUB 151900Z VRB01MPS CAVOK M05/M08 Q1023 NOSIG RMK QFE659.6 82

Tijdstip: 03:12 (19:12 UTC)

Verwachting

Dit bericht is 2 uur en het 32 minuten geleden gemaakt, om 16:40 UTC
Verwachting geldig van 15 om 18 UTC tot 16 om 24 UTC
Wind 4 kt uit variabele richting
Zicht 10 km of meer
geen wolken onder 1500 m en geen cumulonimbus

TAF: ZMUB 151640Z 1518/1624 VRB02MPS CAVOK TNM07/1522Z TX14/1607Z

Waarnemingen en weersverwachtingen van meer dan 4000 vliegvelden (METAR en TAF).

De beschikbare stations zijn de gele en rode punten op de kaart.

Ga met uw muis naar het station om de naam te zien.

Klik dan om waarnemingen en weersverwachtingen te zien.

kaart wijzigen: klik op de groene knoppen met een zwart kruis om in te zoomen, op de groene knop met een streepje om uit te zoomen of op de groene pijlen voor aangrenzende kaarten.


METAR-TAF: